Pottersville, Missouri
Current Conditions -  °F | °C
As of 5:53 PM on Friday 24 Oct 2014 (Local Time) from KUNO Reporting Station
Scattered Clouds Scattered Clouds  
Wind Chill: 68°   Ceiling: Unl
Heat Index: 68°   Visibility: 10mi
Dew Point: 57°   Wind: 3mph
Humidity: 68%   Direction: 200°SSW
Pressure: 30.08"   Gusts: NA
Location:  36.7°N, 92.03°W
Report Text: KUNO 242253Z AUTO 20003KT 10SM SCT043 20/14 A3008 RMK AO2 SLP181 T02000139
Loading
Personal Weather Stations






























Interactive Weather Map New forecast layout! Learn more

10-Day Weather Forecast

Advertisements
Track Severe Weather on mobile